sensor_id;sensor_type;location;lat;lon;timestamp;P1;durP1;ratioP1;P2;durP2;ratioP2
26838;SDS011;40088;51.214;6.786;2022-09-03T00:06:42;1.97;;;1.80;;
26838;SDS011;40088;51.214;6.786;2022-09-03T00:16:58;2.88;;;2.10;;
26838;SDS011;40088;51.214;6.786;2022-09-03T00:27:03;3.45;;;2.35;;
26838;SDS011;40088;51.214;6.786;2022-09-03T00:37:10;3.13;;;2.40;;
26838;SDS011;40088;51.214;6.786;2022-09-03T00:47:12;2.00;;;1.80;;
26838;SDS011;40088;51.214;6.786;2022-09-03T00:57:21;3.15;;;1.88;;
26838;SDS011;40088;51.214;6.786;2022-09-03T01:07:35;3.05;;;1.90;;
26838;SDS011;40088;51.214;6.786;2022-09-03T01:18:06;2.45;;;2.00;;
26838;SDS011;40088;51.214;6.786;2022-09-03T01:49:13;2.35;;;1.95;;
26838;SDS011;40088;51.214;6.786;2022-09-03T02:09:25;3.35;;;1.75;;
26838;SDS011;40088;51.214;6.786;2022-09-03T02:19:25;3.28;;;1.70;;
26838;SDS011;40088;51.214;6.786;2022-09-03T02:29:26;2.78;;;1.80;;
26838;SDS011;40088;51.214;6.786;2022-09-03T02:39:27;3.10;;;1.98;;
26838;SDS011;40088;51.214;6.786;2022-09-03T02:49:28;2.72;;;1.85;;
26838;SDS011;40088;51.214;6.786;2022-09-03T02:59:28;2.00;;;1.50;;
26838;SDS011;40088;51.214;6.786;2022-09-03T03:09:29;1.83;;;1.38;;
26838;SDS011;40088;51.214;6.786;2022-09-03T03:19:29;2.53;;;1.88;;
26838;SDS011;40088;51.214;6.786;2022-09-03T03:29:29;2.85;;;1.42;;
26838;SDS011;40088;51.214;6.786;2022-09-03T03:39:29;1.20;;;1.10;;
26838;SDS011;40088;51.214;6.786;2022-09-03T03:49:30;4.10;;;1.60;;
26838;SDS011;40088;51.214;6.786;2022-09-03T03:59:30;2.13;;;1.55;;
26838;SDS011;40088;51.214;6.786;2022-09-03T04:09:30;2.83;;;1.60;;
26838;SDS011;40088;51.214;6.786;2022-09-03T04:19:31;1.38;;;1.27;;
26838;SDS011;40088;51.214;6.786;2022-09-03T04:29:31;2.50;;;1.48;;
26838;SDS011;40088;51.214;6.786;2022-09-03T04:39:31;3.30;;;1.30;;
26838;SDS011;40088;51.214;6.786;2022-09-03T04:49:32;2.67;;;1.65;;
26838;SDS011;40088;51.214;6.786;2022-09-03T04:59:33;2.58;;;1.30;;
26838;SDS011;40088;51.214;6.786;2022-09-03T05:09:33;2.85;;;1.40;;
26838;SDS011;40088;51.214;6.786;2022-09-03T05:19:34;2.75;;;1.40;;
26838;SDS011;40088;51.214;6.786;2022-09-03T05:29:34;1.80;;;1.35;;
26838;SDS011;40088;51.214;6.786;2022-09-03T05:39:34;2.85;;;1.40;;
26838;SDS011;40088;51.214;6.786;2022-09-03T05:49:34;2.63;;;1.20;;
26838;SDS011;40088;51.214;6.786;2022-09-03T05:59:35;1.30;;;1.20;;
26838;SDS011;40088;51.214;6.786;2022-09-03T06:09:36;1.38;;;1.20;;
26838;SDS011;40088;51.214;6.786;2022-09-03T06:19:36;1.38;;;1.17;;
26838;SDS011;40088;51.214;6.786;2022-09-03T06:29:36;2.45;;;1.30;;
26838;SDS011;40088;51.214;6.786;2022-09-03T06:39:38;1.85;;;1.20;;
26838;SDS011;40088;51.214;6.786;2022-09-03T06:49:40;3.25;;;1.38;;
26838;SDS011;40088;51.214;6.786;2022-09-03T06:59:40;2.90;;;1.45;;
26838;SDS011;40088;51.214;6.786;2022-09-03T07:09:42;2.60;;;1.13;;
26838;SDS011;40088;51.214;6.786;2022-09-03T07:19:42;2.13;;;1.27;;
26838;SDS011;40088;51.214;6.786;2022-09-03T07:29:43;3.13;;;1.45;;
26838;SDS011;40088;51.214;6.786;2022-09-03T07:39:43;1.83;;;1.30;;
26838;SDS011;40088;51.214;6.786;2022-09-03T07:49:45;2.60;;;1.40;;
26838;SDS011;40088;51.214;6.786;2022-09-03T07:59:45;1.73;;;1.20;;
26838;SDS011;40088;51.214;6.786;2022-09-03T08:09:46;1.98;;;1.35;;
26838;SDS011;40088;51.214;6.786;2022-09-03T08:19:47;1.38;;;1.27;;
26838;SDS011;40088;51.214;6.786;2022-09-03T08:29:47;1.70;;;1.27;;
26838;SDS011;40088;51.214;6.786;2022-09-03T08:39:48;1.45;;;1.30;;
26838;SDS011;40088;51.214;6.786;2022-09-03T08:49:51;4.25;;;2.40;;
26838;SDS011;40088;51.214;6.786;2022-09-03T08:59:54;6.28;;;3.67;;
26838;SDS011;40088;51.214;6.786;2022-09-03T09:10:18;4.47;;;3.10;;
26838;SDS011;40088;51.214;6.786;2022-09-03T09:30:44;2.78;;;2.25;;
26838;SDS011;40088;51.214;6.786;2022-09-03T09:40:46;3.13;;;2.13;;
26838;SDS011;40088;51.214;6.786;2022-09-03T09:50:46;2.70;;;2.05;;
26838;SDS011;40088;51.214;6.786;2022-09-03T10:00:57;3.00;;;2.00;;
26838;SDS011;40088;51.214;6.786;2022-09-03T10:11:01;2.17;;;1.65;;
26838;SDS011;40088;51.214;6.786;2022-09-03T10:41:47;1.85;;;1.67;;
26838;SDS011;40088;51.214;6.786;2022-09-03T10:52:11;2.03;;;1.60;;
26838;SDS011;40088;51.214;6.786;2022-09-03T11:12:44;2.13;;;1.90;;
26838;SDS011;40088;51.214;6.786;2022-09-03T11:22:50;2.95;;;2.17;;
26838;SDS011;40088;51.214;6.786;2022-09-03T11:32:54;2.22;;;2.03;;
26838;SDS011;40088;51.214;6.786;2022-09-03T11:43:12;3.50;;;2.15;;
26838;SDS011;40088;51.214;6.786;2022-09-03T11:53:32;2.58;;;2.08;;
26838;SDS011;40088;51.214;6.786;2022-09-03T12:03:42;2.40;;;1.90;;
26838;SDS011;40088;51.214;6.786;2022-09-03T12:23:55;3.60;;;2.15;;
26838;SDS011;40088;51.214;6.786;2022-09-03T12:43:58;2.73;;;2.17;;
26838;SDS011;40088;51.214;6.786;2022-09-03T12:53:59;2.55;;;2.10;;
26838;SDS011;40088;51.214;6.786;2022-09-03T13:04:04;1.80;;;1.63;;
26838;SDS011;40088;51.214;6.786;2022-09-03T13:14:11;3.50;;;2.53;;
26838;SDS011;40088;51.214;6.786;2022-09-03T13:34:36;3.30;;;3.00;;
26838;SDS011;40088;51.214;6.786;2022-09-03T13:44:42;5.57;;;4.75;;
26838;SDS011;40088;51.214;6.786;2022-09-03T13:54:51;6.90;;;6.13;;
26838;SDS011;40088;51.214;6.786;2022-09-03T14:14:59;24.10;;;21.33;;
26838;SDS011;40088;51.214;6.786;2022-09-03T14:25:15;21.63;;;18.98;;
26838;SDS011;40088;51.214;6.786;2022-09-03T14:56:21;17.70;;;15.45;;
26838;SDS011;40088;51.214;6.786;2022-09-03T15:06:52;14.27;;;12.57;;
26838;SDS011;40088;51.214;6.786;2022-09-03T15:17:18;13.73;;;12.32;;
26838;SDS011;40088;51.214;6.786;2022-09-03T15:27:40;12.93;;;10.80;;
26838;SDS011;40088;51.214;6.786;2022-09-03T15:37:44;11.30;;;10.10;;
26838;SDS011;40088;51.214;6.786;2022-09-03T15:47:52;12.02;;;10.20;;
26838;SDS011;40088;51.214;6.786;2022-09-03T16:28:53;11.83;;;9.37;;
26838;SDS011;40088;51.214;6.786;2022-09-03T16:49:43;9.20;;;8.07;;
26838;SDS011;40088;51.214;6.786;2022-09-03T17:00:01;9.20;;;8.20;;
26838;SDS011;40088;51.214;6.786;2022-09-03T17:10:15;8.93;;;7.93;;
26838;SDS011;40088;51.214;6.786;2022-09-03T17:31:02;8.48;;;7.28;;
26838;SDS011;40088;51.214;6.786;2022-09-03T17:51:49;8.27;;;7.32;;
26838;SDS011;40088;51.214;6.786;2022-09-03T18:02:48;9.43;;;8.00;;
26838;SDS011;40088;51.214;6.786;2022-09-03T18:12:42;9.93;;;7.93;;
26838;SDS011;40088;51.214;6.786;2022-09-03T18:33:24;8.05;;;5.38;;
26838;SDS011;40088;51.214;6.786;2022-09-03T18:44:05;6.78;;;5.53;;
26838;SDS011;40088;51.214;6.786;2022-09-03T19:05:13;7.70;;;4.88;;
26838;SDS011;40088;51.214;6.786;2022-09-03T19:15:44;8.35;;;5.13;;
26838;SDS011;40088;51.214;6.786;2022-09-03T19:47:40;5.30;;;4.30;;
26838;SDS011;40088;51.214;6.786;2022-09-03T19:58:12;5.40;;;3.92;;
26838;SDS011;40088;51.214;6.786;2022-09-03T20:08:36;6.57;;;4.63;;
26838;SDS011;40088;51.214;6.786;2022-09-03T20:18:59;5.20;;;4.18;;
26838;SDS011;40088;51.214;6.786;2022-09-03T21:00:12;8.40;;;4.40;;
26838;SDS011;40088;51.214;6.786;2022-09-03T21:10:27;6.47;;;4.53;;
26838;SDS011;40088;51.214;6.786;2022-09-03T21:20:36;14.77;;;8.32;;
26838;SDS011;40088;51.214;6.786;2022-09-03T21:30:42;10.20;;;7.07;;
26838;SDS011;40088;51.214;6.786;2022-09-03T22:01:46;7.35;;;5.15;;
26838;SDS011;40088;51.214;6.786;2022-09-03T22:12:06;5.45;;;4.43;;
26838;SDS011;40088;51.214;6.786;2022-09-03T22:22:21;5.78;;;4.68;;
26838;SDS011;40088;51.214;6.786;2022-09-03T22:32:33;5.40;;;3.92;;
26838;SDS011;40088;51.214;6.786;2022-09-03T22:42:51;6.15;;;4.45;;
26838;SDS011;40088;51.214;6.786;2022-09-03T22:53:08;4.68;;;4.20;;
26838;SDS011;40088;51.214;6.786;2022-09-03T23:03:33;4.43;;;3.83;;
26838;SDS011;40088;51.214;6.786;2022-09-03T23:13:41;4.57;;;4.05;;
26838;SDS011;40088;51.214;6.786;2022-09-03T23:34:13;4.53;;;4.00;;
26838;SDS011;40088;51.214;6.786;2022-09-03T23:54:38;4.57;;;4.03;;
